Mc Kittrick, California
Current Conditions -  °F | °C
As of 1:54 AM on Tuesday 27 Jan 2015 (Local Time) from KBFL Reporting Station
Light Rain Light Rain  
Wind Chill: 54°   Ceiling: 9000
Heat Index: 54°   Visibility: 7mi
Dew Point: 50°   Wind: 3mph
Humidity: 86%   Direction: 30°NNE
Pressure: 30.11"   Gusts: NA
Location:  35.4014°N, 119.705°W
Report Text: KBFL 270954Z AUTO 03003KT 7SM -RA SCT055 OVC090 12/10 A3011 RMK AO2 RAE0855B13 SLP192 P0004 T01220100
Loading
Personal Weather Stations






























Interactive Weather Map New forecast layout! Learn more

10-Day Weather Forecast

Advertisements
Track Severe Weather on mobile